sensor_id;sensor_type;location;lat;lon;timestamp;temperature;humidity
1225;DHT22;602;48.000;7.840;2023-04-24T00:01:02;13.40;99.90
1225;DHT22;602;48.000;7.840;2023-04-24T00:03:33;13.40;99.90
1225;DHT22;602;48.000;7.840;2023-04-24T00:06:00;13.40;99.90
1225;DHT22;602;48.000;7.840;2023-04-24T00:08:27;13.50;99.90
1225;DHT22;602;48.000;7.840;2023-04-24T00:10:54;13.40;99.90
1225;DHT22;602;48.000;7.840;2023-04-24T00:13:21;13.40;99.90
1225;DHT22;602;48.000;7.840;2023-04-24T00:15:49;13.40;99.90
1225;DHT22;602;48.000;7.840;2023-04-24T00:18:16;13.40;99.90
1225;DHT22;602;48.000;7.840;2023-04-24T00:20:43;13.30;99.90
1225;DHT22;602;48.000;7.840;2023-04-24T00:23:10;13.30;99.90
1225;DHT22;602;48.000;7.840;2023-04-24T00:25:37;13.30;99.90
1225;DHT22;602;48.000;7.840;2023-04-24T00:28:04;13.30;99.90
1225;DHT22;602;48.000;7.840;2023-04-24T00:30:31;13.30;99.90
1225;DHT22;602;48.000;7.840;2023-04-24T00:32:59;13.30;99.90
1225;DHT22;602;48.000;7.840;2023-04-24T00:35:26;13.30;99.90
1225;DHT22;602;48.000;7.840;2023-04-24T00:37:53;13.20;99.90
1225;DHT22;602;48.000;7.840;2023-04-24T00:40:20;13.30;99.90
1225;DHT22;602;48.000;7.840;2023-04-24T00:42:47;13.20;99.90
1225;DHT22;602;48.000;7.840;2023-04-24T00:45:15;13.20;99.90
1225;DHT22;602;48.000;7.840;2023-04-24T00:47:42;13.20;99.90
1225;DHT22;602;48.000;7.840;2023-04-24T00:50:10;13.10;99.90
1225;DHT22;602;48.000;7.840;2023-04-24T00:52:38;13.10;99.90
1225;DHT22;602;48.000;7.840;2023-04-24T00:55:06;13.10;99.90
1225;DHT22;602;48.000;7.840;2023-04-24T00:57:33;13.10;99.90
1225;DHT22;602;48.000;7.840;2023-04-24T01:00:01;13.00;99.90
1225;DHT22;602;48.000;7.840;2023-04-24T01:02:28;13.10;99.90
1225;DHT22;602;48.000;7.840;2023-04-24T01:04:55;13.10;99.90
1225;DHT22;602;48.000;7.840;2023-04-24T01:07:24;13.10;99.90
1225;DHT22;602;48.000;7.840;2023-04-24T01:09:52;13.10;99.90
1225;DHT22;602;48.000;7.840;2023-04-24T01:12:19;13.10;99.90
1225;DHT22;602;48.000;7.840;2023-04-24T01:14:46;13.10;99.90
1225;DHT22;602;48.000;7.840;2023-04-24T01:17:13;13.10;99.90
1225;DHT22;602;48.000;7.840;2023-04-24T01:19:40;13.00;99.90
1225;DHT22;602;48.000;7.840;2023-04-24T01:22:13;13.00;99.90
1225;DHT22;602;48.000;7.840;2023-04-24T01:24:40;13.00;99.90
1225;DHT22;602;48.000;7.840;2023-04-24T01:27:08;13.00;99.90
1225;DHT22;602;48.000;7.840;2023-04-24T01:29:35;13.00;99.90
1225;DHT22;602;48.000;7.840;2023-04-24T01:32:03;13.00;99.90
1225;DHT22;602;48.000;7.840;2023-04-24T01:34:30;13.00;99.90
1225;DHT22;602;48.000;7.840;2023-04-24T01:36:58;13.10;99.90
1225;DHT22;602;48.000;7.840;2023-04-24T01:39:26;13.10;99.90
1225;DHT22;602;48.000;7.840;2023-04-24T01:41:54;13.00;99.90
1225;DHT22;602;48.000;7.840;2023-04-24T01:44:21;13.00;99.90
1225;DHT22;602;48.000;7.840;2023-04-24T01:49:19;12.90;99.90
1225;DHT22;602;48.000;7.840;2023-04-24T01:51:46;12.90;99.90
1225;DHT22;602;48.000;7.840;2023-04-24T01:54:13;12.90;99.90
1225;DHT22;602;48.000;7.840;2023-04-24T01:56:43;12.90;99.90
1225;DHT22;602;48.000;7.840;2023-04-24T01:59:10;12.90;99.90
1225;DHT22;602;48.000;7.840;2023-04-24T02:01:38;12.90;99.90
1225;DHT22;602;48.000;7.840;2023-04-24T02:04:06;12.80;99.90
1225;DHT22;602;48.000;7.840;2023-04-24T02:06:34;12.80;99.90
1225;DHT22;602;48.000;7.840;2023-04-24T02:09:01;12.80;99.90
1225;DHT22;602;48.000;7.840;2023-04-24T02:11:28;12.70;99.90
1225;DHT22;602;48.000;7.840;2023-04-24T02:13:56;12.80;99.90
1225;DHT22;602;48.000;7.840;2023-04-24T02:16:23;12.70;99.90
1225;DHT22;602;48.000;7.840;2023-04-24T02:18:50;12.70;99.90
1225;DHT22;602;48.000;7.840;2023-04-24T02:21:17;12.70;99.90
1225;DHT22;602;48.000;7.840;2023-04-24T02:23:44;12.70;99.90
1225;DHT22;602;48.000;7.840;2023-04-24T02:26:11;12.70;99.90
1225;DHT22;602;48.000;7.840;2023-04-24T02:28:38;12.70;99.90
1225;DHT22;602;48.000;7.840;2023-04-24T02:31:06;12.70;99.90
1225;DHT22;602;48.000;7.840;2023-04-24T02:33:33;12.70;99.90
1225;DHT22;602;48.000;7.840;2023-04-24T02:36:01;12.80;99.90
1225;DHT22;602;48.000;7.840;2023-04-24T02:38:28;12.70;99.90
1225;DHT22;602;48.000;7.840;2023-04-24T02:40:55;12.70;99.90
1225;DHT22;602;48.000;7.840;2023-04-24T02:43:22;12.70;99.90
1225;DHT22;602;48.000;7.840;2023-04-24T02:45:49;12.70;99.90
1225;DHT22;602;48.000;7.840;2023-04-24T02:48:17;12.70;99.90
1225;DHT22;602;48.000;7.840;2023-04-24T02:50:46;12.70;99.90
1225;DHT22;602;48.000;7.840;2023-04-24T02:53:13;12.70;99.90
1225;DHT22;602;48.000;7.840;2023-04-24T02:55:40;12.60;99.90
1225;DHT22;602;48.000;7.840;2023-04-24T02:58:09;12.60;99.90
1225;DHT22;602;48.000;7.840;2023-04-24T03:00:38;12.60;99.90
1225;DHT22;602;48.000;7.840;2023-04-24T03:03:05;12.60;99.90
1225;DHT22;602;48.000;7.840;2023-04-24T03:05:33;12.60;99.90
1225;DHT22;602;48.000;7.840;2023-04-24T03:08:00;12.60;99.90
1225;DHT22;602;48.000;7.840;2023-04-24T03:10:27;12.70;99.90
1225;DHT22;602;48.000;7.840;2023-04-24T03:12:54;12.70;99.90
1225;DHT22;602;48.000;7.840;2023-04-24T03:15:21;12.70;99.90
1225;DHT22;602;48.000;7.840;2023-04-24T03:17:48;12.70;99.90
1225;DHT22;602;48.000;7.840;2023-04-24T03:20:16;12.70;99.90
1225;DHT22;602;48.000;7.840;2023-04-24T03:22:44;12.60;99.90
1225;DHT22;602;48.000;7.840;2023-04-24T03:25:11;12.70;99.90
1225;DHT22;602;48.000;7.840;2023-04-24T03:27:37;12.70;99.90
1225;DHT22;602;48.000;7.840;2023-04-24T03:30:06;12.70;99.90
1225;DHT22;602;48.000;7.840;2023-04-24T03:32:33;12.70;99.90
1225;DHT22;602;48.000;7.840;2023-04-24T03:35:00;12.70;99.90
1225;DHT22;602;48.000;7.840;2023-04-24T03:37:26;12.70;99.90
1225;DHT22;602;48.000;7.840;2023-04-24T03:39:55;12.60;99.90
1225;DHT22;602;48.000;7.840;2023-04-24T03:42:21;12.50;99.90
1225;DHT22;602;48.000;7.840;2023-04-24T03:44:48;12.50;99.90
1225;DHT22;602;48.000;7.840;2023-04-24T03:47:15;12.50;99.90
1225;DHT22;602;48.000;7.840;2023-04-24T03:49:42;12.50;99.90
1225;DHT22;602;48.000;7.840;2023-04-24T03:52:09;12.50;99.90
1225;DHT22;602;48.000;7.840;2023-04-24T03:54:36;12.50;99.90
1225;DHT22;602;48.000;7.840;2023-04-24T03:57:04;12.50;99.90
1225;DHT22;602;48.000;7.840;2023-04-24T03:59:31;12.50;99.90
1225;DHT22;602;48.000;7.840;2023-04-24T04:01:58;12.50;99.90
1225;DHT22;602;48.000;7.840;2023-04-24T04:04:25;12.50;99.90
1225;DHT22;602;48.000;7.840;2023-04-24T04:06:51;12.50;99.90
1225;DHT22;602;48.000;7.840;2023-04-24T04:09:18;12.40;99.90
1225;DHT22;602;48.000;7.840;2023-04-24T04:11:45;12.40;99.90
1225;DHT22;602;48.000;7.840;2023-04-24T04:14:13;12.40;99.90
1225;DHT22;602;48.000;7.840;2023-04-24T04:16:40;12.40;99.90
1225;DHT22;602;48.000;7.840;2023-04-24T04:19:07;12.30;99.90
1225;DHT22;602;48.000;7.840;2023-04-24T04:21:34;12.30;99.90
1225;DHT22;602;48.000;7.840;2023-04-24T04:24:01;12.30;99.90
1225;DHT22;602;48.000;7.840;2023-04-24T04:26:28;12.40;99.90
1225;DHT22;602;48.000;7.840;2023-04-24T04:28:58;12.40;99.90
1225;DHT22;602;48.000;7.840;2023-04-24T04:31:27;12.30;99.90
1225;DHT22;602;48.000;7.840;2023-04-24T04:33:54;12.30;99.90
1225;DHT22;602;48.000;7.840;2023-04-24T04:36:21;12.30;99.90
1225;DHT22;602;48.000;7.840;2023-04-24T04:38:49;12.30;99.90
1225;DHT22;602;48.000;7.840;2023-04-24T04:41:16;12.30;99.90
1225;DHT22;602;48.000;7.840;2023-04-24T04:43:43;12.40;99.90
1225;DHT22;602;48.000;7.840;2023-04-24T04:46:11;12.40;99.90
1225;DHT22;602;48.000;7.840;2023-04-24T04:48:40;12.40;99.90
1225;DHT22;602;48.000;7.840;2023-04-24T04:51:06;12.30;99.90
1225;DHT22;602;48.000;7.840;2023-04-24T04:53:33;12.40;99.90
1225;DHT22;602;48.000;7.840;2023-04-24T04:56:00;12.40;99.90
1225;DHT22;602;48.000;7.840;2023-04-24T04:58:27;12.40;99.90
1225;DHT22;602;48.000;7.840;2023-04-24T05:00:54;12.40;99.90
1225;DHT22;602;48.000;7.840;2023-04-24T05:03:22;12.40;99.90
1225;DHT22;602;48.000;7.840;2023-04-24T05:05:51;12.40;99.90
1225;DHT22;602;48.000;7.840;2023-04-24T05:08:18;12.40;99.90
1225;DHT22;602;48.000;7.840;2023-04-24T05:10:45;12.40;99.90
1225;DHT22;602;48.000;7.840;2023-04-24T05:13:12;12.40;99.90
1225;DHT22;602;48.000;7.840;2023-04-24T05:15:39;12.40;99.90
1225;DHT22;602;48.000;7.840;2023-04-24T05:18:06;12.40;99.90
1225;DHT22;602;48.000;7.840;2023-04-24T05:20:32;12.50;99.90
1225;DHT22;602;48.000;7.840;2023-04-24T05:23:01;12.40;99.90
1225;DHT22;602;48.000;7.840;2023-04-24T05:25:27;12.30;99.90
1225;DHT22;602;48.000;7.840;2023-04-24T05:27:54;12.30;99.90
1225;DHT22;602;48.000;7.840;2023-04-24T05:30:21;12.30;99.90
1225;DHT22;602;48.000;7.840;2023-04-24T05:32:48;12.30;99.90
1225;DHT22;602;48.000;7.840;2023-04-24T05:35:15;12.20;99.90
1225;DHT22;602;48.000;7.840;2023-04-24T05:37:42;12.20;99.90
1225;DHT22;602;48.000;7.840;2023-04-24T05:40:11;12.10;99.90
1225;DHT22;602;48.000;7.840;2023-04-24T05:42:37;12.10;99.90
1225;DHT22;602;48.000;7.840;2023-04-24T05:45:06;12.20;99.90
1225;DHT22;602;48.000;7.840;2023-04-24T05:47:33;12.10;99.90
1225;DHT22;602;48.000;7.840;2023-04-24T05:49:59;12.10;99.90
1225;DHT22;602;48.000;7.840;2023-04-24T05:52:26;12.10;99.90
1225;DHT22;602;48.000;7.840;2023-04-24T05:54:53;12.00;99.90
1225;DHT22;602;48.000;7.840;2023-04-24T05:57:22;12.00;99.90
1225;DHT22;602;48.000;7.840;2023-04-24T05:59:49;11.90;99.90
1225;DHT22;602;48.000;7.840;2023-04-24T06:02:16;11.90;99.90
1225;DHT22;602;48.000;7.840;2023-04-24T06:04:44;11.90;99.90
1225;DHT22;602;48.000;7.840;2023-04-24T06:07:11;11.90;99.90
1225;DHT22;602;48.000;7.840;2023-04-24T06:09:38;11.90;99.90
1225;DHT22;602;48.000;7.840;2023-04-24T06:12:05;11.80;99.90
1225;DHT22;602;48.000;7.840;2023-04-24T06:14:35;11.90;99.90
1225;DHT22;602;48.000;7.840;2023-04-24T06:17:01;11.90;99.90
1225;DHT22;602;48.000;7.840;2023-04-24T06:19:28;12.00;99.90
1225;DHT22;602;48.000;7.840;2023-04-24T06:21:55;12.10;99.90
1225;DHT22;602;48.000;7.840;2023-04-24T06:24:22;12.00;99.90
1225;DHT22;602;48.000;7.840;2023-04-24T06:26:53;11.90;99.90
1225;DHT22;602;48.000;7.840;2023-04-24T06:29:20;11.90;99.90
1225;DHT22;602;48.000;7.840;2023-04-24T06:31:48;11.90;99.90
1225;DHT22;602;48.000;7.840;2023-04-24T06:34:15;11.80;99.90
1225;DHT22;602;48.000;7.840;2023-04-24T06:36:42;11.90;99.90
1225;DHT22;602;48.000;7.840;2023-04-24T06:39:09;11.80;99.90
1225;DHT22;602;48.000;7.840;2023-04-24T06:41:36;11.80;99.90
1225;DHT22;602;48.000;7.840;2023-04-24T06:44:03;11.90;99.90
1225;DHT22;602;48.000;7.840;2023-04-24T06:46:30;11.80;99.90
1225;DHT22;602;48.000;7.840;2023-04-24T06:48:58;11.80;99.90
1225;DHT22;602;48.000;7.840;2023-04-24T06:51:26;11.80;99.90
1225;DHT22;602;48.000;7.840;2023-04-24T06:53:53;11.80;99.90
1225;DHT22;602;48.000;7.840;2023-04-24T06:56:21;11.80;99.90
1225;DHT22;602;48.000;7.840;2023-04-24T06:58:48;11.80;99.90
1225;DHT22;602;48.000;7.840;2023-04-24T07:01:15;11.90;99.90
1225;DHT22;602;48.000;7.840;2023-04-24T07:03:42;11.90;99.90
1225;DHT22;602;48.000;7.840;2023-04-24T07:06:10;12.00;99.90
1225;DHT22;602;48.000;7.840;2023-04-24T07:08:38;12.00;99.90
1225;DHT22;602;48.000;7.840;2023-04-24T07:11:07;12.00;99.90
1225;DHT22;602;48.000;7.840;2023-04-24T07:13:34;12.00;99.90
1225;DHT22;602;48.000;7.840;2023-04-24T07:16:02;12.10;99.90
1225;DHT22;602;48.000;7.840;2023-04-24T07:18:28;12.10;99.90
1225;DHT22;602;48.000;7.840;2023-04-24T07:20:56;12.20;99.90
1225;DHT22;602;48.000;7.840;2023-04-24T07:23:24;12.20;99.90
1225;DHT22;602;48.000;7.840;2023-04-24T07:25:51;12.30;99.90
1225;DHT22;602;48.000;7.840;2023-04-24T07:28:18;12.50;99.90
1225;DHT22;602;48.000;7.840;2023-04-24T07:30:45;12.80;99.90
1225;DHT22;602;48.000;7.840;2023-04-24T07:33:11;13.00;99.90
1225;DHT22;602;48.000;7.840;2023-04-24T07:35:38;13.30;99.90
1225;DHT22;602;48.000;7.840;2023-04-24T07:38:05;13.50;99.90
1225;DHT22;602;48.000;7.840;2023-04-24T07:40:34;13.60;99.90
1225;DHT22;602;48.000;7.840;2023-04-24T07:43:00;13.90;99.90
1225;DHT22;602;48.000;7.840;2023-04-24T07:45:27;14.20;99.90
1225;DHT22;602;48.000;7.840;2023-04-24T07:47:54;14.40;99.90
1225;DHT22;602;48.000;7.840;2023-04-24T07:50:21;14.60;99.90
1225;DHT22;602;48.000;7.840;2023-04-24T07:52:48;14.80;99.90
1225;DHT22;602;48.000;7.840;2023-04-24T07:55:15;14.90;99.90
1225;DHT22;602;48.000;7.840;2023-04-24T07:57:44;14.80;99.90
1225;DHT22;602;48.000;7.840;2023-04-24T08:00:11;14.70;99.90
1225;DHT22;602;48.000;7.840;2023-04-24T08:02:39;14.60;99.90
1225;DHT22;602;48.000;7.840;2023-04-24T08:05:06;14.60;99.90
1225;DHT22;602;48.000;7.840;2023-04-24T08:07:33;14.30;99.90
1225;DHT22;602;48.000;7.840;2023-04-24T08:10:01;14.20;99.90
1225;DHT22;602;48.000;7.840;2023-04-24T08:12:28;14.20;99.90
1225;DHT22;602;48.000;7.840;2023-04-24T08:14:56;14.20;99.90
1225;DHT22;602;48.000;7.840;2023-04-24T08:17:24;14.20;99.90
1225;DHT22;602;48.000;7.840;2023-04-24T08:19:51;14.20;99.90
1225;DHT22;602;48.000;7.840;2023-04-24T08:22:24;14.20;99.90
1225;DHT22;602;48.000;7.840;2023-04-24T08:24:52;14.20;99.90
1225;DHT22;602;48.000;7.840;2023-04-24T08:27:19;14.20;99.90
1225;DHT22;602;48.000;7.840;2023-04-24T08:29:46;14.40;99.90
1225;DHT22;602;48.000;7.840;2023-04-24T08:32:14;14.40;99.90
1225;DHT22;602;48.000;7.840;2023-04-24T08:34:41;14.40;99.90
1225;DHT22;602;48.000;7.840;2023-04-24T08:37:08;14.40;99.90
1225;DHT22;602;48.000;7.840;2023-04-24T08:39:36;14.40;99.90
1225;DHT22;602;48.000;7.840;2023-04-24T08:42:04;14.30;99.90
1225;DHT22;602;48.000;7.840;2023-04-24T08:44:33;14.30;99.90
1225;DHT22;602;48.000;7.840;2023-04-24T08:47:01;14.40;99.90
1225;DHT22;602;48.000;7.840;2023-04-24T08:49:30;14.40;99.90
1225;DHT22;602;48.000;7.840;2023-04-24T08:51:57;14.40;99.90
1225;DHT22;602;48.000;7.840;2023-04-24T08:54:25;14.40;99.90
1225;DHT22;602;48.000;7.840;2023-04-24T08:56:54;14.60;99.90
1225;DHT22;602;48.000;7.840;2023-04-24T08:59:22;14.80;99.90
1225;DHT22;602;48.000;7.840;2023-04-24T09:01:51;14.90;99.90
1225;DHT22;602;48.000;7.840;2023-04-24T09:04:20;14.80;99.90
1225;DHT22;602;48.000;7.840;2023-04-24T09:06:51;14.90;99.90
1225;DHT22;602;48.000;7.840;2023-04-24T09:09:18;14.80;99.90
1225;DHT22;602;48.000;7.840;2023-04-24T09:11:46;14.90;99.90
1225;DHT22;602;48.000;7.840;2023-04-24T09:14:14;15.00;99.90
1225;DHT22;602;48.000;7.840;2023-04-24T09:16:41;15.30;99.90
1225;DHT22;602;48.000;7.840;2023-04-24T09:19:08;15.30;99.90
1225;DHT22;602;48.000;7.840;2023-04-24T09:21:35;15.10;99.90
1225;DHT22;602;48.000;7.840;2023-04-24T09:24:15;15.00;99.90
1225;DHT22;602;48.000;7.840;2023-04-24T09:26:43;14.80;99.90
1225;DHT22;602;48.000;7.840;2023-04-24T09:29:14;14.90;99.90
1225;DHT22;602;48.000;7.840;2023-04-24T09:31:42;15.20;99.90
1225;DHT22;602;48.000;7.840;2023-04-24T09:34:09;15.60;99.90
1225;DHT22;602;48.000;7.840;2023-04-24T09:36:38;15.60;99.90
1225;DHT22;602;48.000;7.840;2023-04-24T09:39:10;15.40;99.90
1225;DHT22;602;48.000;7.840;2023-04-24T09:41:44;15.10;99.90
1225;DHT22;602;48.000;7.840;2023-04-24T09:44:12;15.00;99.90
1225;DHT22;602;48.000;7.840;2023-04-24T09:46:41;14.90;99.90
1225;DHT22;602;48.000;7.840;2023-04-24T09:49:08;14.90;99.90
1225;DHT22;602;48.000;7.840;2023-04-24T09:51:37;14.70;99.90
1225;DHT22;602;48.000;7.840;2023-04-24T09:54:14;14.80;99.90
1225;DHT22;602;48.000;7.840;2023-04-24T09:56:43;15.00;99.90
1225;DHT22;602;48.000;7.840;2023-04-24T09:59:12;15.10;99.90
1225;DHT22;602;48.000;7.840;2023-04-24T10:01:39;15.10;99.90
1225;DHT22;602;48.000;7.840;2023-04-24T10:04:16;15.10;99.90
1225;DHT22;602;48.000;7.840;2023-04-24T10:06:44;15.30;99.90
1225;DHT22;602;48.000;7.840;2023-04-24T10:09:12;15.70;99.90
1225;DHT22;602;48.000;7.840;2023-04-24T10:11:44;16.10;99.90
1225;DHT22;602;48.000;7.840;2023-04-24T10:14:12;16.30;99.90
1225;DHT22;602;48.000;7.840;2023-04-24T10:16:40;16.60;99.90
1225;DHT22;602;48.000;7.840;2023-04-24T10:19:10;17.10;99.90
1225;DHT22;602;48.000;7.840;2023-04-24T10:21:40;17.10;99.90
1225;DHT22;602;48.000;7.840;2023-04-24T10:24:12;17.30;99.90
1225;DHT22;602;48.000;7.840;2023-04-24T10:26:41;17.30;99.90
1225;DHT22;602;48.000;7.840;2023-04-24T10:29:10;17.50;99.90
1225;DHT22;602;48.000;7.840;2023-04-24T10:31:38;17.90;99.90
1225;DHT22;602;48.000;7.840;2023-04-24T10:34:06;18.10;99.90
1225;DHT22;602;48.000;7.840;2023-04-24T10:36:34;18.20;99.90
1225;DHT22;602;48.000;7.840;2023-04-24T10:39:04;18.20;99.90
1225;DHT22;602;48.000;7.840;2023-04-24T10:41:33;18.20;99.90
1225;DHT22;602;48.000;7.840;2023-04-24T10:44:08;18.10;99.90
1225;DHT22;602;48.000;7.840;2023-04-24T10:46:36;18.10;99.90
1225;DHT22;602;48.000;7.840;2023-04-24T10:49:04;17.90;99.90
1225;DHT22;602;48.000;7.840;2023-04-24T10:51:45;17.70;99.90
1225;DHT22;602;48.000;7.840;2023-04-24T10:54:23;17.50;99.90
1225;DHT22;602;48.000;7.840;2023-04-24T10:56:51;17.40;99.90
1225;DHT22;602;48.000;7.840;2023-04-24T10:59:26;17.10;99.90
1225;DHT22;602;48.000;7.840;2023-04-24T11:01:53;17.20;99.90
1225;DHT22;602;48.000;7.840;2023-04-24T11:04:29;17.10;99.90
1225;DHT22;602;48.000;7.840;2023-04-24T11:06:57;16.80;99.90
1225;DHT22;602;48.000;7.840;2023-04-24T11:09:27;16.70;99.90
1225;DHT22;602;48.000;7.840;2023-04-24T11:12:03;16.60;99.90
1225;DHT22;602;48.000;7.840;2023-04-24T11:15:00;16.50;99.90
1225;DHT22;602;48.000;7.840;2023-04-24T11:17:29;16.30;99.90
1225;DHT22;602;48.000;7.840;2023-04-24T11:20:01;16.10;99.90
1225;DHT22;602;48.000;7.840;2023-04-24T11:22:33;15.90;99.90
1225;DHT22;602;48.000;7.840;2023-04-24T11:25:01;15.70;99.90
1225;DHT22;602;48.000;7.840;2023-04-24T11:27:30;15.50;99.90
1225;DHT22;602;48.000;7.840;2023-04-24T11:30:03;15.40;99.90
1225;DHT22;602;48.000;7.840;2023-04-24T11:32:34;15.30;99.90
1225;DHT22;602;48.000;7.840;2023-04-24T11:35:04;15.20;99.90
1225;DHT22;602;48.000;7.840;2023-04-24T11:37:35;15.30;99.90
1225;DHT22;602;48.000;7.840;2023-04-24T11:40:04;15.40;99.90
1225;DHT22;602;48.000;7.840;2023-04-24T11:42:34;15.60;99.90
1225;DHT22;602;48.000;7.840;2023-04-24T11:45:07;15.80;99.90
1225;DHT22;602;48.000;7.840;2023-04-24T11:47:35;15.90;99.90
1225;DHT22;602;48.000;7.840;2023-04-24T11:50:04;16.00;99.90
1225;DHT22;602;48.000;7.840;2023-04-24T11:52:31;16.10;99.90
1225;DHT22;602;48.000;7.840;2023-04-24T11:55:00;16.40;99.90
1225;DHT22;602;48.000;7.840;2023-04-24T11:57:27;16.80;99.90
1225;DHT22;602;48.000;7.840;2023-04-24T11:59:59;17.20;99.90
1225;DHT22;602;48.000;7.840;2023-04-24T12:02:27;17.00;99.90
1225;DHT22;602;48.000;7.840;2023-04-24T12:04:54;17.10;99.90
1225;DHT22;602;48.000;7.840;2023-04-24T12:07:22;17.20;99.90
1225;DHT22;602;48.000;7.840;2023-04-24T12:09:55;17.50;99.90
1225;DHT22;602;48.000;7.840;2023-04-24T12:12:25;17.70;99.90
1225;DHT22;602;48.000;7.840;2023-04-24T12:14:54;17.60;99.90
1225;DHT22;602;48.000;7.840;2023-04-24T12:17:27;17.10;99.90
1225;DHT22;602;48.000;7.840;2023-04-24T12:19:58;17.00;99.90
1225;DHT22;602;48.000;7.840;2023-04-24T12:22:26;16.90;99.90
1225;DHT22;602;48.000;7.840;2023-04-24T12:24:58;16.90;99.90
1225;DHT22;602;48.000;7.840;2023-04-24T12:27:26;17.10;99.90
1225;DHT22;602;48.000;7.840;2023-04-24T12:29:55;17.00;99.90
1225;DHT22;602;48.000;7.840;2023-04-24T12:32:23;16.90;99.90
1225;DHT22;602;48.000;7.840;2023-04-24T12:34:52;16.90;99.90
1225;DHT22;602;48.000;7.840;2023-04-24T12:37:20;16.90;99.90
1225;DHT22;602;48.000;7.840;2023-04-24T12:40:05;16.90;99.90
1225;DHT22;602;48.000;7.840;2023-04-24T12:42:33;16.80;99.90
1225;DHT22;602;48.000;7.840;2023-04-24T12:45:01;17.00;99.90
1225;DHT22;602;48.000;7.840;2023-04-24T12:47:31;17.10;99.90
1225;DHT22;602;48.000;7.840;2023-04-24T12:50:00;17.00;99.90
1225;DHT22;602;48.000;7.840;2023-04-24T12:52:29;17.10;99.90
1225;DHT22;602;48.000;7.840;2023-04-24T12:54:58;16.90;99.90
1225;DHT22;602;48.000;7.840;2023-04-24T12:57:26;16.90;99.90
1225;DHT22;602;48.000;7.840;2023-04-24T12:59:54;16.90;99.90
1225;DHT22;602;48.000;7.840;2023-04-24T13:02:21;16.90;99.90
1225;DHT22;602;48.000;7.840;2023-04-24T13:04:49;17.00;99.90
1225;DHT22;602;48.000;7.840;2023-04-24T13:07:20;17.30;99.90
1225;DHT22;602;48.000;7.840;2023-04-24T13:09:49;17.40;99.90
1225;DHT22;602;48.000;7.840;2023-04-24T13:12:17;17.50;99.90
1225;DHT22;602;48.000;7.840;2023-04-24T13:14:44;17.60;99.90
1225;DHT22;602;48.000;7.840;2023-04-24T13:17:12;17.50;99.90
1225;DHT22;602;48.000;7.840;2023-04-24T13:19:40;17.40;99.90
1225;DHT22;602;48.000;7.840;2023-04-24T13:22:09;17.40;99.90
1225;DHT22;602;48.000;7.840;2023-04-24T13:24:38;17.40;99.90
1225;DHT22;602;48.000;7.840;2023-04-24T13:27:06;17.30;99.90
1225;DHT22;602;48.000;7.840;2023-04-24T13:29:33;17.20;99.90
1225;DHT22;602;48.000;7.840;2023-04-24T13:32:00;17.10;99.90
1225;DHT22;602;48.000;7.840;2023-04-24T13:34:27;17.10;99.90
1225;DHT22;602;48.000;7.840;2023-04-24T13:36:56;16.90;99.90
1225;DHT22;602;48.000;7.840;2023-04-24T13:39:25;17.00;99.90
1225;DHT22;602;48.000;7.840;2023-04-24T13:41:53;17.00;99.90
1225;DHT22;602;48.000;7.840;2023-04-24T13:44:21;16.90;99.90
1225;DHT22;602;48.000;7.840;2023-04-24T13:46:50;16.90;99.90
1225;DHT22;602;48.000;7.840;2023-04-24T13:49:20;16.70;99.90
1225;DHT22;602;48.000;7.840;2023-04-24T13:51:47;16.60;99.90
1225;DHT22;602;48.000;7.840;2023-04-24T13:54:14;16.60;99.90
1225;DHT22;602;48.000;7.840;2023-04-24T13:56:41;16.70;99.90
1225;DHT22;602;48.000;7.840;2023-04-24T14:01:54;16.80;99.90
1225;DHT22;602;48.000;7.840;2023-04-24T14:04:21;16.80;99.90
1225;DHT22;602;48.000;7.840;2023-04-24T14:06:48;16.70;99.90
1225;DHT22;602;48.000;7.840;2023-04-24T14:09:15;16.80;99.90
1225;DHT22;602;48.000;7.840;2023-04-24T14:11:43;16.90;99.90
1225;DHT22;602;48.000;7.840;2023-04-24T14:14:10;16.80;99.90
1225;DHT22;602;48.000;7.840;2023-04-24T14:16:37;16.60;99.90
1225;DHT22;602;48.000;7.840;2023-04-24T14:19:08;16.60;99.90
1225;DHT22;602;48.000;7.840;2023-04-24T14:21:35;16.40;99.90
1225;DHT22;602;48.000;7.840;2023-04-24T14:24:03;16.30;99.90
1225;DHT22;602;48.000;7.840;2023-04-24T14:26:31;16.20;99.90
1225;DHT22;602;48.000;7.840;2023-04-24T14:28:58;16.00;99.90
1225;DHT22;602;48.000;7.840;2023-04-24T14:31:26;15.80;99.90
1225;DHT22;602;48.000;7.840;2023-04-24T14:33:53;15.60;99.90
1225;DHT22;602;48.000;7.840;2023-04-24T14:36:21;15.40;99.90
1225;DHT22;602;48.000;7.840;2023-04-24T14:38:48;15.30;99.90
1225;DHT22;602;48.000;7.840;2023-04-24T14:41:15;15.20;99.90
1225;DHT22;602;48.000;7.840;2023-04-24T14:43:42;15.20;99.90
1225;DHT22;602;48.000;7.840;2023-04-24T14:46:09;15.10;99.90
1225;DHT22;602;48.000;7.840;2023-04-24T14:48:36;15.20;99.90
1225;DHT22;602;48.000;7.840;2023-04-24T14:51:03;15.10;99.90
1225;DHT22;602;48.000;7.840;2023-04-24T14:53:31;15.10;99.90
1225;DHT22;602;48.000;7.840;2023-04-24T14:55:58;15.20;99.90
1225;DHT22;602;48.000;7.840;2023-04-24T14:58:25;15.30;99.90
1225;DHT22;602;48.000;7.840;2023-04-24T15:00:51;15.30;99.90
1225;DHT22;602;48.000;7.840;2023-04-24T15:03:20;15.20;99.90
1225;DHT22;602;48.000;7.840;2023-04-24T15:05:47;15.30;99.90
1225;DHT22;602;48.000;7.840;2023-04-24T15:08:14;15.20;99.90
1225;DHT22;602;48.000;7.840;2023-04-24T15:10:42;15.20;99.90
1225;DHT22;602;48.000;7.840;2023-04-24T15:13:09;15.30;99.90
1225;DHT22;602;48.000;7.840;2023-04-24T15:15:37;15.30;99.90
1225;DHT22;602;48.000;7.840;2023-04-24T15:18:04;15.30;99.90
1225;DHT22;602;48.000;7.840;2023-04-24T15:20:33;15.30;99.90
1225;DHT22;602;48.000;7.840;2023-04-24T15:23:00;15.30;99.90
1225;DHT22;602;48.000;7.840;2023-04-24T15:25:27;15.30;99.90
1225;DHT22;602;48.000;7.840;2023-04-24T15:27:58;15.30;99.90
1225;DHT22;602;48.000;7.840;2023-04-24T15:30:25;15.30;99.90
1225;DHT22;602;48.000;7.840;2023-04-24T15:32:52;15.30;99.90
1225;DHT22;602;48.000;7.840;2023-04-24T15:35:19;15.40;99.90
1225;DHT22;602;48.000;7.840;2023-04-24T15:37:46;15.40;99.90
1225;DHT22;602;48.000;7.840;2023-04-24T15:40:13;15.30;99.90
1225;DHT22;602;48.000;7.840;2023-04-24T15:42:42;15.20;99.90
1225;DHT22;602;48.000;7.840;2023-04-24T15:45:11;15.20;99.90
1225;DHT22;602;48.000;7.840;2023-04-24T15:47:38;15.20;99.90
1225;DHT22;602;48.000;7.840;2023-04-24T15:50:06;15.20;99.90
1225;DHT22;602;48.000;7.840;2023-04-24T15:52:34;15.20;99.90
1225;DHT22;602;48.000;7.840;2023-04-24T15:55:02;15.20;99.90
1225;DHT22;602;48.000;7.840;2023-04-24T15:57:29;15.20;99.90
1225;DHT22;602;48.000;7.840;2023-04-24T15:59:55;15.10;99.90
1225;DHT22;602;48.000;7.840;2023-04-24T16:02:24;15.20;99.90
1225;DHT22;602;48.000;7.840;2023-04-24T16:04:51;15.20;99.90
1225;DHT22;602;48.000;7.840;2023-04-24T16:07:19;15.30;99.90
1225;DHT22;602;48.000;7.840;2023-04-24T16:09:46;15.30;99.90
1225;DHT22;602;48.000;7.840;2023-04-24T16:12:13;15.30;99.90
1225;DHT22;602;48.000;7.840;2023-04-24T16:14:40;15.20;99.90
1225;DHT22;602;48.000;7.840;2023-04-24T16:17:06;15.20;99.90
1225;DHT22;602;48.000;7.840;2023-04-24T16:19:35;15.10;99.90
1225;DHT22;602;48.000;7.840;2023-04-24T16:22:03;14.90;99.90
1225;DHT22;602;48.000;7.840;2023-04-24T16:24:30;14.80;99.90
1225;DHT22;602;48.000;7.840;2023-04-24T16:26:57;14.80;99.90